Garfield, Illinois
Current Conditions -  °F | °C
As of 8:55 AM on Tuesday 21 Oct 2014 (Local Time) from KC75 Reporting Station
Clear Clear  
Wind Chill: 46°   Ceiling: Unl
Heat Index: 46°   Visibility: 10mi
Dew Point: 41°   Wind: 3mph
Humidity: 85%   Direction: 360°N
Pressure: 30.16"   Gusts: NA
Location:  41.0632°N, 89.0208°W
Report Text: KC75 211355Z AUTO 36003KT 10SM CLR 08/05 A3016 RMK AO2 T00750052
Loading
Personal Weather Stations






























Interactive Weather Map
Tropical Storm Tracking
New forecast layout! Learn more

10-Day Weather Forecast

Advertisements
Track Severe Weather on mobile